Terminal Aerodrome Forecast
Issued by NWS Sterling, VA

Current Version | Previous Version | Text Only | Print | Product List | Glossary Off
Versions: 1 2 3 4 5 6 7 8 9 10 11 12 13 14 15 16 17 18 19 20 21 22 23 24 25 26 27

000
FTUS41 KLWX 262043 AAA
TAFIAD
TAF AMD
KIAD 262043Z 2621/2724 20015G21KT P6SM FEW030 SCT250
     FM262200 23011G22KT 5SM -SHRA BKN050
     FM270100 29011G20KT 5SM -SHRA OVC050
     FM270300 33011G19KT P6SM OVC050
     FM271100 34007KT 3SM -RA OVC015
     FM271300 34005KT P6SM OVC025
     FM271800 34009KT P6SM BKN050=

USA.gov is the U.S. government's official web portal to all federal, state and local government web resources and services.